sensor_id;sensor_type;location;lat;lon;timestamp;P1;durP1;ratioP1;P2;durP2;ratioP2
25107;SDS011;13090;53.422;7.670;2023-05-10T00:00:45;10.43;;;8.88;;
25107;SDS011;13090;53.422;7.670;2023-05-10T00:12:49;12.10;;;8.40;;
25107;SDS011;13090;53.422;7.670;2023-05-10T00:17:54;9.95;;;8.07;;
25107;SDS011;13090;53.422;7.670;2023-05-10T00:22:57;10.05;;;6.78;;
25107;SDS011;13090;53.422;7.670;2023-05-10T00:38:36;5.88;;;5.18;;
25107;SDS011;13090;53.422;7.670;2023-05-10T00:43:40;6.68;;;5.63;;
25107;SDS011;13090;53.422;7.670;2023-05-10T00:48:42;6.50;;;5.50;;
25107;SDS011;13090;53.422;7.670;2023-05-10T00:53:46;6.70;;;5.85;;
25107;SDS011;13090;53.422;7.670;2023-05-10T00:58:49;5.88;;;4.97;;
25107;SDS011;13090;53.422;7.670;2023-05-10T01:03:52;8.35;;;5.63;;
25107;SDS011;13090;53.422;7.670;2023-05-10T01:08:55;7.05;;;6.07;;
25107;SDS011;13090;53.422;7.670;2023-05-10T01:13:59;8.23;;;5.43;;
25107;SDS011;13090;53.422;7.670;2023-05-10T01:19:03;6.57;;;5.63;;
25107;SDS011;13090;53.422;7.670;2023-05-10T01:35:39;6.63;;;5.45;;
25107;SDS011;13090;53.422;7.670;2023-05-10T01:40:48;7.57;;;6.05;;
25107;SDS011;13090;53.422;7.670;2023-05-10T01:46:00;5.65;;;4.72;;
25107;SDS011;13090;53.422;7.670;2023-05-10T01:51:08;6.40;;;5.07;;
25107;SDS011;13090;53.422;7.670;2023-05-10T01:56:12;6.78;;;5.38;;
25107;SDS011;13090;53.422;7.670;2023-05-10T02:01:15;6.55;;;4.88;;
25107;SDS011;13090;53.422;7.670;2023-05-10T02:06:21;5.60;;;4.93;;
25107;SDS011;13090;53.422;7.670;2023-05-10T02:11:25;7.45;;;5.20;;
25107;SDS011;13090;53.422;7.670;2023-05-10T02:16:29;5.63;;;5.07;;
25107;SDS011;13090;53.422;7.670;2023-05-10T02:21:34;5.90;;;5.25;;
25107;SDS011;13090;53.422;7.670;2023-05-10T02:26:37;6.30;;;4.85;;
25107;SDS011;13090;53.422;7.670;2023-05-10T02:31:40;5.20;;;4.45;;
25107;SDS011;13090;53.422;7.670;2023-05-10T02:36:45;6.82;;;4.78;;
25107;SDS011;13090;53.422;7.670;2023-05-10T02:41:48;5.07;;;4.57;;
25107;SDS011;13090;53.422;7.670;2023-05-10T02:46:53;6.05;;;5.22;;
25107;SDS011;13090;53.422;7.670;2023-05-10T02:52:00;6.10;;;4.90;;
25107;SDS011;13090;53.422;7.670;2023-05-10T02:57:06;6.07;;;5.18;;
25107;SDS011;13090;53.422;7.670;2023-05-10T03:02:11;7.95;;;5.38;;
25107;SDS011;13090;53.422;7.670;2023-05-10T03:07:16;5.45;;;4.65;;
25107;SDS011;13090;53.422;7.670;2023-05-10T03:12:20;4.03;;;3.53;;
25107;SDS011;13090;53.422;7.670;2023-05-10T03:17:33;5.45;;;4.32;;
25107;SDS011;13090;53.422;7.670;2023-05-10T03:22:45;4.93;;;4.30;;
25107;SDS011;13090;53.422;7.670;2023-05-10T03:27:49;4.25;;;3.85;;
25107;SDS011;13090;53.422;7.670;2023-05-10T03:32:51;4.38;;;3.92;;
25107;SDS011;13090;53.422;7.670;2023-05-10T03:37:55;4.57;;;3.97;;
25107;SDS011;13090;53.422;7.670;2023-05-10T03:42:57;5.05;;;4.15;;
25107;SDS011;13090;53.422;7.670;2023-05-10T03:47:59;4.63;;;4.13;;
25107;SDS011;13090;53.422;7.670;2023-05-10T03:53:03;4.72;;;4.22;;
25107;SDS011;13090;53.422;7.670;2023-05-10T03:58:05;5.35;;;4.85;;
25107;SDS011;13090;53.422;7.670;2023-05-10T04:03:07;5.82;;;4.65;;
25107;SDS011;13090;53.422;7.670;2023-05-10T04:08:11;5.40;;;4.63;;
25107;SDS011;13090;53.422;7.670;2023-05-10T04:13:13;4.88;;;4.32;;
25107;SDS011;13090;53.422;7.670;2023-05-10T04:18:16;4.88;;;4.28;;
25107;SDS011;13090;53.422;7.670;2023-05-10T04:23:20;5.72;;;4.97;;
25107;SDS011;13090;53.422;7.670;2023-05-10T04:28:22;5.93;;;5.00;;
25107;SDS011;13090;53.422;7.670;2023-05-10T04:33:24;5.93;;;4.93;;
25107;SDS011;13090;53.422;7.670;2023-05-10T04:38:28;6.25;;;4.85;;
25107;SDS011;13090;53.422;7.670;2023-05-10T04:43:31;5.05;;;4.55;;
25107;SDS011;13090;53.422;7.670;2023-05-10T04:48:33;4.82;;;4.30;;
25107;SDS011;13090;53.422;7.670;2023-05-10T04:53:37;9.02;;;4.70;;
25107;SDS011;13090;53.422;7.670;2023-05-10T04:58:39;5.85;;;4.70;;
25107;SDS011;13090;53.422;7.670;2023-05-10T05:03:41;6.40;;;5.13;;
25107;SDS011;13090;53.422;7.670;2023-05-10T05:08:45;5.68;;;4.57;;
25107;SDS011;13090;53.422;7.670;2023-05-10T05:13:47;6.53;;;5.30;;
25107;SDS011;13090;53.422;7.670;2023-05-10T05:18:50;5.32;;;4.65;;
25107;SDS011;13090;53.422;7.670;2023-05-10T05:23:53;6.05;;;4.78;;
25107;SDS011;13090;53.422;7.670;2023-05-10T05:28:56;6.53;;;5.47;;
25107;SDS011;13090;53.422;7.670;2023-05-10T05:33:58;6.38;;;5.32;;
25107;SDS011;13090;53.422;7.670;2023-05-10T05:39:02;7.72;;;5.75;;
25107;SDS011;13090;53.422;7.670;2023-05-10T05:44:04;8.25;;;6.32;;
25107;SDS011;13090;53.422;7.670;2023-05-10T05:49:07;6.80;;;5.30;;
25107;SDS011;13090;53.422;7.670;2023-05-10T05:54:10;6.32;;;5.10;;
25107;SDS011;13090;53.422;7.670;2023-05-10T05:59:12;5.97;;;5.00;;
25107;SDS011;13090;53.422;7.670;2023-05-10T06:04:15;7.10;;;6.05;;
25107;SDS011;13090;53.422;7.670;2023-05-10T06:09:19;6.75;;;5.35;;
25107;SDS011;13090;53.422;7.670;2023-05-10T06:14:21;5.18;;;4.28;;
25107;SDS011;13090;53.422;7.670;2023-05-10T06:19:23;6.78;;;5.53;;
25107;SDS011;13090;53.422;7.670;2023-05-10T06:24:27;5.38;;;4.57;;
25107;SDS011;13090;53.422;7.670;2023-05-10T06:29:29;5.68;;;5.00;;
25107;SDS011;13090;53.422;7.670;2023-05-10T06:34:32;7.43;;;5.38;;
25107;SDS011;13090;53.422;7.670;2023-05-10T06:39:35;7.75;;;5.40;;
25107;SDS011;13090;53.422;7.670;2023-05-10T06:44:38;7.25;;;5.65;;
25107;SDS011;13090;53.422;7.670;2023-05-10T06:49:40;6.38;;;5.03;;
25107;SDS011;13090;53.422;7.670;2023-05-10T06:54:44;7.82;;;5.93;;
25107;SDS011;13090;53.422;7.670;2023-05-10T06:59:46;6.70;;;5.03;;
25107;SDS011;13090;53.422;7.670;2023-05-10T07:04:48;8.40;;;6.65;;
25107;SDS011;13090;53.422;7.670;2023-05-10T07:09:52;9.45;;;6.50;;
25107;SDS011;13090;53.422;7.670;2023-05-10T07:14:54;6.80;;;5.28;;
25107;SDS011;13090;53.422;7.670;2023-05-10T07:19:57;10.90;;;7.85;;
25107;SDS011;13090;53.422;7.670;2023-05-10T07:25:00;8.75;;;5.90;;
25107;SDS011;13090;53.422;7.670;2023-05-10T07:30:03;6.18;;;5.00;;
25107;SDS011;13090;53.422;7.670;2023-05-10T07:35:06;8.18;;;5.68;;
25107;SDS011;13090;53.422;7.670;2023-05-10T07:40:11;21.02;;;14.55;;
25107;SDS011;13090;53.422;7.670;2023-05-10T07:45:13;9.77;;;6.80;;
25107;SDS011;13090;53.422;7.670;2023-05-10T07:50:16;2.63;;;2.03;;
25107;SDS011;13090;53.422;7.670;2023-05-10T07:55:20;2.63;;;2.13;;
25107;SDS011;13090;53.422;7.670;2023-05-10T08:00:22;3.10;;;2.70;;
25107;SDS011;13090;53.422;7.670;2023-05-10T08:05:24;2.50;;;1.98;;
25107;SDS011;13090;53.422;7.670;2023-05-10T08:10:28;2.63;;;2.38;;
25107;SDS011;13090;53.422;7.670;2023-05-10T08:15:31;4.57;;;3.65;;
25107;SDS011;13090;53.422;7.670;2023-05-10T08:20:33;5.90;;;4.38;;
25107;SDS011;13090;53.422;7.670;2023-05-10T08:25:37;5.90;;;4.45;;
25107;SDS011;13090;53.422;7.670;2023-05-10T08:30:39;4.20;;;3.20;;
25107;SDS011;13090;53.422;7.670;2023-05-10T08:35:41;5.15;;;3.40;;
25107;SDS011;13090;53.422;7.670;2023-05-10T08:40:45;4.15;;;3.40;;
25107;SDS011;13090;53.422;7.670;2023-05-10T08:45:49;4.82;;;3.70;;
25107;SDS011;13090;53.422;7.670;2023-05-10T08:50:54;8.05;;;4.22;;
25107;SDS011;13090;53.422;7.670;2023-05-10T08:56:01;5.55;;;3.58;;
25107;SDS011;13090;53.422;7.670;2023-05-10T09:01:04;5.60;;;3.97;;
25107;SDS011;13090;53.422;7.670;2023-05-10T09:06:06;8.02;;;5.20;;
25107;SDS011;13090;53.422;7.670;2023-05-10T09:11:11;3.70;;;2.65;;
25107;SDS011;13090;53.422;7.670;2023-05-10T09:16:14;3.05;;;2.40;;
25107;SDS011;13090;53.422;7.670;2023-05-10T09:21:22;2.33;;;2.13;;
25107;SDS011;13090;53.422;7.670;2023-05-10T09:26:26;3.15;;;2.17;;
25107;SDS011;13090;53.422;7.670;2023-05-10T09:31:43;4.75;;;2.30;;
25107;SDS011;13090;53.422;7.670;2023-05-10T09:36:53;1.85;;;1.33;;
25107;SDS011;13090;53.422;7.670;2023-05-10T09:41:58;1.98;;;1.70;;
25107;SDS011;13090;53.422;7.670;2023-05-10T09:47:02;1.95;;;1.70;;
25107;SDS011;13090;53.422;7.670;2023-05-10T09:52:06;2.33;;;1.95;;
25107;SDS011;13090;53.422;7.670;2023-05-10T09:57:11;2.80;;;2.35;;
25107;SDS011;13090;53.422;7.670;2023-05-10T10:02:21;3.42;;;2.85;;
25107;SDS011;13090;53.422;7.670;2023-05-10T10:07:30;4.15;;;3.10;;
25107;SDS011;13090;53.422;7.670;2023-05-10T10:12:34;2.20;;;2.00;;
25107;SDS011;13090;53.422;7.670;2023-05-10T10:17:37;2.72;;;2.40;;
25107;SDS011;13090;53.422;7.670;2023-05-10T10:22:39;4.88;;;3.30;;
25107;SDS011;13090;53.422;7.670;2023-05-10T10:27:45;5.20;;;3.42;;
25107;SDS011;13090;53.422;7.670;2023-05-10T10:33:10;4.07;;;3.67;;
25107;SDS011;13090;53.422;7.670;2023-05-10T10:38:36;3.83;;;3.50;;
25107;SDS011;13090;53.422;7.670;2023-05-10T10:43:40;3.72;;;3.40;;
25107;SDS011;13090;53.422;7.670;2023-05-10T10:48:47;2.25;;;2.05;;
25107;SDS011;13090;53.422;7.670;2023-05-10T10:58:56;2.50;;;1.80;;
25107;SDS011;13090;53.422;7.670;2023-05-10T11:04:16;2.95;;;1.85;;
25107;SDS011;13090;53.422;7.670;2023-05-10T11:09:20;3.65;;;2.05;;
25107;SDS011;13090;53.422;7.670;2023-05-10T11:14:28;4.10;;;2.42;;
25107;SDS011;13090;53.422;7.670;2023-05-10T11:19:33;5.38;;;2.80;;
25107;SDS011;13090;53.422;7.670;2023-05-10T11:24:35;3.63;;;2.53;;
25107;SDS011;13090;53.422;7.670;2023-05-10T11:29:39;3.45;;;2.95;;
25107;SDS011;13090;53.422;7.670;2023-05-10T11:34:41;5.68;;;4.28;;
25107;SDS011;13090;53.422;7.670;2023-05-10T11:39:48;5.60;;;4.07;;
25107;SDS011;13090;53.422;7.670;2023-05-10T11:44:52;4.28;;;3.38;;
25107;SDS011;13090;53.422;7.670;2023-05-10T11:49:54;5.20;;;3.88;;
25107;SDS011;13090;53.422;7.670;2023-05-10T11:54:57;4.03;;;3.63;;
25107;SDS011;13090;53.422;7.670;2023-05-10T12:00:01;3.92;;;2.97;;
25107;SDS011;13090;53.422;7.670;2023-05-10T12:05:03;2.55;;;2.33;;
25107;SDS011;13090;53.422;7.670;2023-05-10T12:10:07;2.60;;;2.38;;
25107;SDS011;13090;53.422;7.670;2023-05-10T12:15:16;2.33;;;2.13;;
25107;SDS011;13090;53.422;7.670;2023-05-10T12:20:20;2.70;;;2.40;;
25107;SDS011;13090;53.422;7.670;2023-05-10T12:25:24;2.50;;;2.30;;
25107;SDS011;13090;53.422;7.670;2023-05-10T12:30:34;2.40;;;2.20;;
25107;SDS011;13090;53.422;7.670;2023-05-10T12:35:44;2.65;;;2.30;;
25107;SDS011;13090;53.422;7.670;2023-05-10T12:40:47;2.17;;;1.60;;
25107;SDS011;13090;53.422;7.670;2023-05-10T12:45:51;2.17;;;2.05;;
25107;SDS011;13090;53.422;7.670;2023-05-10T12:50:54;2.70;;;2.50;;
25107;SDS011;13090;53.422;7.670;2023-05-10T12:55:56;2.42;;;2.22;;
25107;SDS011;13090;53.422;7.670;2023-05-10T13:01:00;1.77;;;1.67;;
25107;SDS011;13090;53.422;7.670;2023-05-10T13:06:02;3.22;;;1.50;;
25107;SDS011;13090;53.422;7.670;2023-05-10T13:11:05;2.03;;;1.80;;
25107;SDS011;13090;53.422;7.670;2023-05-10T13:16:09;1.40;;;1.30;;
25107;SDS011;13090;53.422;7.670;2023-05-10T13:21:11;1.80;;;1.25;;
25107;SDS011;13090;53.422;7.670;2023-05-10T13:26:13;2.10;;;1.90;;
25107;SDS011;13090;53.422;7.670;2023-05-10T13:31:17;2.58;;;1.90;;
25107;SDS011;13090;53.422;7.670;2023-05-10T13:36:19;2.33;;;1.85;;
25107;SDS011;13090;53.422;7.670;2023-05-10T13:41:22;1.20;;;1.10;;
25107;SDS011;13090;53.422;7.670;2023-05-10T13:46:25;0.70;;;0.70;;
25107;SDS011;13090;53.422;7.670;2023-05-10T13:51:28;0.85;;;0.60;;
25107;SDS011;13090;53.422;7.670;2023-05-10T13:56:30;5.50;;;0.80;;
25107;SDS011;13090;53.422;7.670;2023-05-10T14:01:34;1.23;;;0.60;;
25107;SDS011;13090;53.422;7.670;2023-05-10T14:06:36;1.17;;;0.88;;
25107;SDS011;13090;53.422;7.670;2023-05-10T14:11:39;0.75;;;0.75;;
25107;SDS011;13090;53.422;7.670;2023-05-10T14:16:43;1.20;;;0.90;;
25107;SDS011;13090;53.422;7.670;2023-05-10T14:21:46;1.67;;;1.30;;
25107;SDS011;13090;53.422;7.670;2023-05-10T14:26:48;1.88;;;1.50;;
25107;SDS011;13090;53.422;7.670;2023-05-10T14:31:52;2.78;;;1.42;;
25107;SDS011;13090;53.422;7.670;2023-05-10T14:36:54;1.88;;;1.48;;
25107;SDS011;13090;53.422;7.670;2023-05-10T14:41:57;1.40;;;1.10;;
25107;SDS011;13090;53.422;7.670;2023-05-10T14:47:00;3.38;;;1.30;;
25107;SDS011;13090;53.422;7.670;2023-05-10T14:52:03;4.32;;;3.67;;
25107;SDS011;13090;53.422;7.670;2023-05-10T14:57:05;3.58;;;3.00;;
25107;SDS011;13090;53.422;7.670;2023-05-10T15:02:09;5.03;;;2.33;;
25107;SDS011;13090;53.422;7.670;2023-05-10T15:07:12;4.35;;;2.70;;
25107;SDS011;13090;53.422;7.670;2023-05-10T15:12:14;2.67;;;2.30;;
25107;SDS011;13090;53.422;7.670;2023-05-10T15:17:18;9.52;;;6.72;;
25107;SDS011;13090;53.422;7.670;2023-05-10T15:22:20;3.40;;;2.38;;
25107;SDS011;13090;53.422;7.670;2023-05-10T15:27:22;2.63;;;2.17;;
25107;SDS011;13090;53.422;7.670;2023-05-10T15:32:26;2.97;;;2.00;;
25107;SDS011;13090;53.422;7.670;2023-05-10T15:37:29;2.42;;;1.95;;
25107;SDS011;13090;53.422;7.670;2023-05-10T15:42:31;7.28;;;4.68;;
25107;SDS011;13090;53.422;7.670;2023-05-10T15:47:34;4.68;;;3.47;;
25107;SDS011;13090;53.422;7.670;2023-05-10T15:52:37;6.03;;;4.10;;
25107;SDS011;13090;53.422;7.670;2023-05-10T15:57:39;4.63;;;3.50;;
25107;SDS011;13090;53.422;7.670;2023-05-10T16:02:44;3.33;;;2.30;;
25107;SDS011;13090;53.422;7.670;2023-05-10T16:07:46;2.42;;;1.83;;
25107;SDS011;13090;53.422;7.670;2023-05-10T16:12:49;3.10;;;2.50;;
25107;SDS011;13090;53.422;7.670;2023-05-10T16:17:53;3.42;;;2.30;;
25107;SDS011;13090;53.422;7.670;2023-05-10T16:22:55;2.13;;;2.00;;
25107;SDS011;13090;53.422;7.670;2023-05-10T16:27:58;2.30;;;2.10;;
25107;SDS011;13090;53.422;7.670;2023-05-10T16:33:02;2.58;;;2.38;;
25107;SDS011;13090;53.422;7.670;2023-05-10T16:38:05;2.42;;;2.17;;
25107;SDS011;13090;53.422;7.670;2023-05-10T16:43:07;3.05;;;2.38;;
25107;SDS011;13090;53.422;7.670;2023-05-10T16:48:11;2.92;;;2.63;;
25107;SDS011;13090;53.422;7.670;2023-05-10T16:53:13;5.43;;;3.05;;
25107;SDS011;13090;53.422;7.670;2023-05-10T16:58:15;3.40;;;2.38;;
25107;SDS011;13090;53.422;7.670;2023-05-10T17:03:19;3.13;;;2.40;;
25107;SDS011;13090;53.422;7.670;2023-05-10T17:08:21;3.20;;;2.60;;
25107;SDS011;13090;53.422;7.670;2023-05-10T17:13:23;6.65;;;4.75;;
25107;SDS011;13090;53.422;7.670;2023-05-10T17:18:27;5.55;;;4.35;;
25107;SDS011;13090;53.422;7.670;2023-05-10T17:23:29;4.18;;;3.30;;
25107;SDS011;13090;53.422;7.670;2023-05-10T17:28:31;3.60;;;3.10;;
25107;SDS011;13090;53.422;7.670;2023-05-10T17:33:35;4.13;;;2.95;;
25107;SDS011;13090;53.422;7.670;2023-05-10T17:38:37;4.70;;;3.10;;
25107;SDS011;13090;53.422;7.670;2023-05-10T17:43:39;3.80;;;3.10;;
25107;SDS011;13090;53.422;7.670;2023-05-10T17:48:43;3.40;;;2.72;;
25107;SDS011;13090;53.422;7.670;2023-05-10T17:53:46;4.32;;;3.28;;
25107;SDS011;13090;53.422;7.670;2023-05-10T17:58:48;4.50;;;3.67;;
25107;SDS011;13090;53.422;7.670;2023-05-10T18:03:51;6.32;;;4.78;;
25107;SDS011;13090;53.422;7.670;2023-05-10T18:08:54;22.65;;;15.43;;
25107;SDS011;13090;53.422;7.670;2023-05-10T18:13:56;12.13;;;8.80;;
25107;SDS011;13090;53.422;7.670;2023-05-10T18:19:00;8.27;;;6.25;;
25107;SDS011;13090;53.422;7.670;2023-05-10T18:24:03;10.00;;;6.88;;
25107;SDS011;13090;53.422;7.670;2023-05-10T18:29:06;5.20;;;3.55;;
25107;SDS011;13090;53.422;7.670;2023-05-10T18:34:09;6.93;;;5.43;;
25107;SDS011;13090;53.422;7.670;2023-05-10T18:39:11;4.72;;;3.58;;
25107;SDS011;13090;53.422;7.670;2023-05-10T18:44:14;3.75;;;3.17;;
25107;SDS011;13090;53.422;7.670;2023-05-10T18:49:18;4.55;;;3.28;;
25107;SDS011;13090;53.422;7.670;2023-05-10T18:54:20;9.95;;;7.82;;
25107;SDS011;13090;53.422;7.670;2023-05-10T18:59:23;7.93;;;6.95;;
25107;SDS011;13090;53.422;7.670;2023-05-10T19:04:26;6.68;;;4.30;;
25107;SDS011;13090;53.422;7.670;2023-05-10T19:09:29;4.45;;;2.88;;
25107;SDS011;13090;53.422;7.670;2023-05-10T19:14:31;5.15;;;3.63;;
25107;SDS011;13090;53.422;7.670;2023-05-10T19:19:34;7.28;;;4.30;;
25107;SDS011;13090;53.422;7.670;2023-05-10T19:24:38;9.48;;;7.28;;
25107;SDS011;13090;53.422;7.670;2023-05-10T19:29:40;6.25;;;4.28;;
25107;SDS011;13090;53.422;7.670;2023-05-10T19:34:44;5.57;;;4.30;;
25107;SDS011;13090;53.422;7.670;2023-05-10T19:39:46;6.15;;;3.70;;
25107;SDS011;13090;53.422;7.670;2023-05-10T19:44:49;8.38;;;5.47;;
25107;SDS011;13090;53.422;7.670;2023-05-10T19:49:52;6.55;;;4.35;;
25107;SDS011;13090;53.422;7.670;2023-05-10T19:54:55;16.48;;;12.02;;
25107;SDS011;13090;53.422;7.670;2023-05-10T19:59:57;29.48;;;20.35;;
25107;SDS011;13090;53.422;7.670;2023-05-10T20:05:00;8.80;;;6.40;;
25107;SDS011;13090;53.422;7.670;2023-05-10T20:10:03;6.88;;;4.63;;
25107;SDS011;13090;53.422;7.670;2023-05-10T20:15:06;5.03;;;3.60;;
25107;SDS011;13090;53.422;7.670;2023-05-10T20:20:11;10.18;;;6.75;;
25107;SDS011;13090;53.422;7.670;2023-05-10T20:25:14;5.93;;;4.78;;
25107;SDS011;13090;53.422;7.670;2023-05-10T20:30:17;7.28;;;4.95;;
25107;SDS011;13090;53.422;7.670;2023-05-10T20:35:21;9.80;;;7.47;;
25107;SDS011;13090;53.422;7.670;2023-05-10T20:40:23;7.38;;;6.18;;
25107;SDS011;13090;53.422;7.670;2023-05-10T20:45:26;6.32;;;4.95;;
25107;SDS011;13090;53.422;7.670;2023-05-10T20:50:29;6.00;;;4.20;;
25107;SDS011;13090;53.422;7.670;2023-05-10T20:55:32;5.22;;;4.30;;
25107;SDS011;13090;53.422;7.670;2023-05-10T21:00:34;5.22;;;4.40;;
25107;SDS011;13090;53.422;7.670;2023-05-10T21:05:38;4.93;;;4.15;;
25107;SDS011;13090;53.422;7.670;2023-05-10T21:10:40;6.15;;;4.47;;
25107;SDS011;13090;53.422;7.670;2023-05-10T21:15:42;4.70;;;3.95;;
25107;SDS011;13090;53.422;7.670;2023-05-10T21:20:46;6.30;;;4.78;;
25107;SDS011;13090;53.422;7.670;2023-05-10T21:25:48;6.78;;;4.43;;
25107;SDS011;13090;53.422;7.670;2023-05-10T21:30:50;5.75;;;4.63;;
25107;SDS011;13090;53.422;7.670;2023-05-10T21:35:54;4.60;;;3.80;;
25107;SDS011;13090;53.422;7.670;2023-05-10T21:40:57;3.70;;;3.33;;
25107;SDS011;13090;53.422;7.670;2023-05-10T21:45:59;4.93;;;3.92;;
25107;SDS011;13090;53.422;7.670;2023-05-10T21:51:03;4.10;;;3.50;;
25107;SDS011;13090;53.422;7.670;2023-05-10T21:56:05;5.57;;;4.43;;
25107;SDS011;13090;53.422;7.670;2023-05-10T22:01:07;4.55;;;3.78;;
25107;SDS011;13090;53.422;7.670;2023-05-10T22:06:11;5.25;;;3.85;;
25107;SDS011;13090;53.422;7.670;2023-05-10T22:11:13;5.13;;;4.20;;
25107;SDS011;13090;53.422;7.670;2023-05-10T22:16:15;4.60;;;3.75;;
25107;SDS011;13090;53.422;7.670;2023-05-10T22:21:19;5.13;;;4.45;;
25107;SDS011;13090;53.422;7.670;2023-05-10T22:26:21;4.93;;;3.67;;
25107;SDS011;13090;53.422;7.670;2023-05-10T22:31:24;5.18;;;3.63;;
25107;SDS011;13090;53.422;7.670;2023-05-10T22:36:28;5.90;;;3.95;;
25107;SDS011;13090;53.422;7.670;2023-05-10T22:41:31;4.45;;;3.95;;
25107;SDS011;13090;53.422;7.670;2023-05-10T22:46:33;4.68;;;4.05;;
25107;SDS011;13090;53.422;7.670;2023-05-10T22:51:37;5.78;;;4.13;;
25107;SDS011;13090;53.422;7.670;2023-05-10T22:56:40;7.32;;;4.65;;
25107;SDS011;13090;53.422;7.670;2023-05-10T23:01:42;5.53;;;4.47;;
25107;SDS011;13090;53.422;7.670;2023-05-10T23:06:46;5.88;;;4.50;;
25107;SDS011;13090;53.422;7.670;2023-05-10T23:11:48;7.60;;;5.35;;
25107;SDS011;13090;53.422;7.670;2023-05-10T23:16:50;5.80;;;4.75;;
25107;SDS011;13090;53.422;7.670;2023-05-10T23:21:54;6.05;;;4.65;;
25107;SDS011;13090;53.422;7.670;2023-05-10T23:26:56;6.80;;;5.40;;
25107;SDS011;13090;53.422;7.670;2023-05-10T23:31:58;5.47;;;4.75;;
25107;SDS011;13090;53.422;7.670;2023-05-10T23:37:03;5.38;;;4.22;;
25107;SDS011;13090;53.422;7.670;2023-05-10T23:42:05;6.07;;;5.00;;
25107;SDS011;13090;53.422;7.670;2023-05-10T23:47:07;6.93;;;5.30;;
25107;SDS011;13090;53.422;7.670;2023-05-10T23:52:11;8.65;;;5.10;;
25107;SDS011;13090;53.422;7.670;2023-05-10T23:57:13;6.53;;;5.20;;
